Time;durP1;ratioP1;P1;durP2;ratioP2;P2;SDS_P1;SDS_P2;PMS_P1;PMS_P2;Temp;Humidity;BMP_temperature;BMP_pressure;BME280_temperature;BME280_humidity;BME280_pressure;Samples;Min_cycle;Max_cycle;Signal;HPM_P1;HPM_P2
2023/02/04 00:00:10;;;;;;;2.10;1.70;;;20.10;71.50;;;;;;5056530;28;20292;-80
2023/02/04 00:02:37;;;;;;;2.45;1.52;;;20.10;71.40;;;;;;5055092;28;20200;-80
2023/02/04 00:05:04;;;;;;;3.05;2.20;;;20.10;71.40;;;;;;5056856;28;20756;-81
2023/02/04 00:07:31;;;;;;;5.07;2.50;;;20.10;71.50;;;;;;5056519;28;20203;-79
2023/02/04 00:09:58;;;;;;;2.15;1.40;;;20.10;71.50;;;;;;5054579;28;20203;-79
2023/02/04 00:12:26;;;;;;;3.72;1.80;;;20.10;71.60;;;;;;5055295;28;20202;-80
2023/02/04 00:14:53;;;;;;;4.90;1.85;;;20.10;71.50;;;;;;5056115;28;20663;-81
2023/02/04 00:17:19;;;;;;;2.40;1.50;;;20.10;71.50;;;;;;5055199;28;20205;-80
2023/02/04 00:19:46;;;;;;;3.70;2.25;;;20.10;71.50;;;;;;5059091;28;20572;-80
2023/02/04 00:22:13;;;;;;;2.35;1.60;;;20.10;71.50;;;;;;5060545;28;20193;-81
2023/02/04 00:24:41;;;;;;;3.85;1.90;;;20.10;71.50;;;;;;5057458;28;20238;-80
2023/02/04 00:27:09;;;;;;;2.35;1.73;;;20.10;71.50;;;;;;5059747;28;20233;-80
2023/02/04 00:29:37;;;;;;;3.10;1.70;;;20.10;71.50;;;;;;5057999;28;20193;-80
2023/02/04 00:32:04;;;;;;;2.92;1.63;;;20.00;71.40;;;;;;5057176;28;20208;-78
2023/02/04 00:34:31;;;;;;;4.65;1.98;;;20.00;71.40;;;;;;5058685;28;20203;-78
2023/02/04 00:36:57;;;;;;;4.10;1.85;;;20.00;71.50;;;;;;5058363;28;20915;-80
2023/02/04 00:39:24;;;;;;;3.45;2.42;;;20.00;71.40;;;;;;5059046;28;20201;-80
2023/02/04 00:41:51;;;;;;;2.88;1.50;;;20.00;71.40;;;;;;5058533;28;20204;-79
2023/02/04 00:44:17;;;;;;;2.22;1.40;;;20.00;71.40;;;;;;5058271;28;20234;-80
2023/02/04 00:46:47;;;;;;;2.75;1.75;;;20.00;71.40;;;;;;5056358;28;21948;-80
2023/02/04 00:49:14;;;;;;;2.20;1.77;;;20.00;71.40;;;;;;5060831;28;20213;-80
2023/02/04 00:51:45;;;;;;;4.47;2.22;;;20.00;71.40;;;;;;5060208;28;20228;-80
2023/02/04 00:54:12;;;;;;;2.80;1.55;;;20.00;71.40;;;;;;5058708;28;20204;-79
2023/02/04 00:56:39;;;;;;;4.35;1.67;;;20.00;71.40;;;;;;5056922;28;20279;-83
2023/02/04 00:59:05;;;;;;;3.75;1.58;;;19.90;71.40;;;;;;5059286;28;20663;-80
2023/02/04 01:01:32;;;;;;;2.13;1.30;;;20.00;71.40;;;;;;5058138;28;20199;-81
2023/02/04 01:04:04;;;;;;;6.25;2.42;;;20.00;71.40;;;;;;5060564;28;20223;-83
2023/02/04 01:06:31;;;;;;;2.40;1.70;;;20.00;71.20;;;;;;5059258;28;20607;-83
2023/02/04 01:08:58;;;;;;;3.30;1.92;;;20.00;71.30;;;;;;5056870;28;20200;-82
2023/02/04 01:11:24;;;;;;;3.10;1.55;;;20.00;71.20;;;;;;5057429;28;20199;-82
2023/02/04 01:13:51;;;;;;;3.50;2.08;;;20.00;71.20;;;;;;5055571;28;20559;-82
2023/02/04 01:16:18;;;;;;;1.80;1.00;;;20.00;71.20;;;;;;5058352;28;20211;-82
2023/02/04 01:18:45;;;;;;;1.80;1.63;;;20.00;71.20;;;;;;5058892;28;20499;-83
2023/02/04 01:21:14;;;;;;;2.92;1.30;;;20.00;71.20;;;;;;5057227;28;20571;-83
2023/02/04 01:23:40;;;;;;;2.63;1.70;;;20.00;71.20;;;;;;5055615;28;20299;-82
2023/02/04 01:26:07;;;;;;;2.72;1.42;;;19.90;71.80;;;;;;5056048;28;20288;-82
2023/02/04 01:28:34;;;;;;;3.40;1.80;;;19.90;71.00;;;;;;5058025;28;20200;-83
2023/02/04 01:31:01;;;;;;;3.78;1.80;;;19.90;71.10;;;;;;5058466;28;20207;-82
2023/02/04 01:33:28;;;;;;;2.65;1.63;;;19.90;71.10;;;;;;5058301;28;20662;-82
2023/02/04 01:35:55;;;;;;;3.08;1.92;;;19.90;71.00;;;;;;5059816;28;20604;-83
2023/02/04 01:38:23;;;;;;;2.00;1.40;;;19.90;71.00;;;;;;5059213;28;20219;-82
2023/02/04 01:40:50;;;;;;;2.00;1.40;;;19.90;71.00;;;;;;5056751;28;20216;-82
2023/02/04 01:43:21;;;;;;;2.63;1.30;;;19.90;71.00;;;;;;5057266;28;20217;-82
2023/02/04 01:45:48;;;;;;;2.13;1.50;;;19.90;71.10;;;;;;5057118;28;20216;-82
2023/02/04 01:48:19;;;;;;;2.67;1.70;;;19.90;71.00;;;;;;5058357;28;20795;-83
2023/02/04 01:50:46;;;;;;;2.20;1.60;;;19.90;71.00;;;;;;5056356;28;20223;-82
2023/02/04 01:53:21;;;;;;;2.30;1.48;;;19.90;71.00;;;;;;5058917;28;20226;-82
2023/02/04 01:55:50;;;;;;;2.45;2.00;;;19.90;71.00;;;;;;5056327;28;20196;-82
2023/02/04 01:58:17;;;;;;;2.25;1.35;;;19.90;71.00;;;;;;5057258;28;20204;-82
2023/02/04 02:00:44;;;;;;;3.05;1.50;;;19.90;71.00;;;;;;5057288;28;20199;-81
2023/02/04 02:03:11;;;;;;;1.65;1.33;;;19.90;71.00;;;;;;5056819;28;20540;-82
2023/02/04 02:05:41;;;;;;;2.55;1.77;;;19.90;71.00;;;;;;5057520;28;20227;-82
2023/02/04 02:08:09;;;;;;;1.67;1.30;;;19.90;71.00;;;;;;5057660;28;20203;-82
2023/02/04 02:10:38;;;;;;;2.10;1.45;;;19.90;71.00;;;;;;5056041;28;20208;-82
2023/02/04 02:13:08;;;;;;;2.55;1.83;;;19.90;71.00;;;;;;5054828;28;20201;-80
2023/02/04 02:15:35;;;;;;;2.60;1.50;;;19.80;70.90;;;;;;5056191;28;21877;-81
2023/02/04 02:18:01;;;;;;;2.30;1.60;;;19.80;70.80;;;;;;5056218;28;20226;-81
2023/02/04 02:20:29;;;;;;;3.55;1.70;;;19.80;70.80;;;;;;5056050;28;20784;-82
2023/02/04 02:23:02;;;;;;;1.73;1.40;;;19.80;70.80;;;;;;5056999;28;20199;-82
2023/02/04 02:25:30;;;;;;;2.28;1.48;;;19.80;70.90;;;;;;5056559;28;20595;-81
2023/02/04 02:27:59;;;;;;;2.17;1.55;;;19.80;70.80;;;;;;5056973;28;20202;-81
2023/02/04 02:30:27;;;;;;;2.20;1.58;;;19.80;70.80;;;;;;5057922;28;20205;-81
2023/02/04 02:32:54;;;;;;;3.60;1.88;;;19.80;70.80;;;;;;5056991;28;20212;-82
2023/02/04 02:35:21;;;;;;;2.50;1.65;;;19.80;70.80;;;;;;5053352;28;20211;-81
2023/02/04 02:37:48;;;;;;;2.13;1.10;;;19.80;70.80;;;;;;5057244;28;20205;-81
2023/02/04 02:40:15;;;;;;;2.03;1.50;;;19.80;70.80;;;;;;5057437;28;20203;-81
2023/02/04 02:42:45;;;;;;;2.75;2.03;;;19.80;70.70;;;;;;5055095;28;20207;-82
2023/02/04 02:45:22;;;;;;;3.25;2.28;;;19.80;70.80;;;;;;5054815;28;20496;-82
2023/02/04 02:47:49;;;;;;;2.17;1.60;;;19.80;70.70;;;;;;5054231;28;20191;-81
2023/02/04 02:50:19;;;;;;;2.95;2.00;;;19.80;70.80;;;;;;5056372;28;20214;-82
2023/02/04 02:52:46;;;;;;;4.00;1.38;;;19.80;70.80;;;;;;5056125;28;20219;-81
2023/02/04 02:55:16;;;;;;;1.63;1.23;;;19.80;70.70;;;;;;5056803;28;20202;-81
2023/02/04 02:57:45;;;;;;;2.80;1.42;;;19.70;70.70;;;;;;5054002;28;20246;-81
2023/02/04 03:00:15;;;;;;;1.70;1.40;;;19.70;70.70;;;;;;5054949;28;20207;-81
2023/02/04 03:02:42;;;;;;;1.70;1.17;;;19.70;70.60;;;;;;5055771;28;20207;-82
2023/02/04 03:05:09;;;;;;;2.55;1.80;;;19.70;70.60;;;;;;5059238;28;20219;-81
2023/02/04 03:07:36;;;;;;;1.42;1.20;;;19.70;70.60;;;;;;5058911;28;20207;-81
2023/02/04 03:10:04;;;;;;;2.35;1.42;;;19.70;70.70;;;;;;5059269;28;20209;-80
2023/02/04 03:12:31;;;;;;;3.75;1.67;;;19.70;70.70;;;;;;5057841;28;20208;-80
2023/02/04 03:14:59;;;;;;;2.25;1.30;;;19.70;70.60;;;;;;5058653;28;20307;-80
2023/02/04 03:17:26;;;;;;;2.55;1.63;;;19.70;70.60;;;;;;5056540;28;20204;-80
2023/02/04 03:19:53;;;;;;;1.98;1.40;;;19.70;70.70;;;;;;5057657;28;20577;-81
2023/02/04 03:22:19;;;;;;;2.78;1.48;;;19.70;70.60;;;;;;5057967;28;20208;-81
2023/02/04 03:24:46;;;;;;;2.25;1.65;;;19.70;70.60;;;;;;5056253;28;20226;-80
2023/02/04 03:27:14;;;;;;;2.22;1.45;;;19.70;70.60;;;;;;5058130;28;20627;-80
2023/02/04 03:29:43;;;;;;;1.30;1.00;;;19.70;70.60;;;;;;5057455;28;20199;-80
2023/02/04 03:32:12;;;;;;;2.13;1.40;;;19.70;70.60;;;;;;5055816;28;20204;-77
2023/02/04 03:34:38;;;;;;;2.05;1.55;;;19.70;70.60;;;;;;5055606;28;20572;-78
2023/02/04 03:37:05;;;;;;;1.50;1.20;;;19.70;70.60;;;;;;5055609;28;20200;-76
2023/02/04 03:39:32;;;;;;;2.30;1.20;;;19.70;70.60;;;;;;5053354;28;20199;-76
2023/02/04 03:41:59;;;;;;;1.60;1.30;;;19.70;70.60;;;;;;5055552;28;20207;-79
2023/02/04 03:44:26;;;;;;;2.50;1.40;;;19.70;70.50;;;;;;5055430;28;20577;-77
2023/02/04 03:46:54;;;;;;;2.10;1.40;;;19.70;70.60;;;;;;5054311;28;20287;-78
2023/02/04 03:49:22;;;;;;;1.88;1.10;;;19.70;70.60;;;;;;5056611;28;20621;-76
2023/02/04 03:51:49;;;;;;;1.85;1.50;;;19.70;70.60;;;;;;5055988;28;20222;-78
2023/02/04 03:54:16;;;;;;;2.10;1.50;;;19.70;70.60;;;;;;5059233;28;20204;-77
2023/02/04 03:56:43;;;;;;;2.78;1.63;;;19.60;70.40;;;;;;5058722;28;20216;-77
2023/02/04 03:59:10;;;;;;;1.95;1.45;;;19.60;70.40;;;;;;5060472;28;20204;-78
2023/02/04 04:01:36;;;;;;;2.05;1.48;;;19.60;70.40;;;;;;5058129;28;20215;-77
2023/02/04 04:04:03;;;;;;;2.88;1.40;;;19.60;70.40;;;;;;5059213;28;20209;-76
2023/02/04 04:06:31;;;;;;;2.28;1.17;;;19.60;70.40;;;;;;5060349;28;20220;-77
2023/02/04 04:08:58;;;;;;;2.75;1.35;;;19.60;70.40;;;;;;5059094;28;20224;-76
2023/02/04 04:11:25;;;;;;;1.75;1.35;;;19.60;70.50;;;;;;5056469;28;20203;-77
2023/02/04 04:13:52;;;;;;;1.20;1.10;;;19.60;70.50;;;;;;5058899;28;20191;-78
2023/02/04 04:16:19;;;;;;;2.05;1.77;;;19.60;70.40;;;;;;5058787;28;20218;-78
2023/02/04 04:18:46;;;;;;;1.90;1.20;;;19.60;70.40;;;;;;5060318;28;20617;-78
2023/02/04 04:21:13;;;;;;;1.50;1.27;;;19.60;70.40;;;;;;5059591;28;20576;-77
2023/02/04 04:23:41;;;;;;;1.90;1.20;;;19.60;70.40;;;;;;5058640;28;20199;-78
2023/02/04 04:26:07;;;;;;;1.70;1.30;;;19.60;70.40;;;;;;5056839;28;20216;-77
2023/02/04 04:28:34;;;;;;;3.33;1.25;;;19.60;70.40;;;;;;5060232;28;20196;-78
2023/02/04 04:31:01;;;;;;;1.65;1.10;;;19.60;70.40;;;;;;5058815;28;20205;-77
2023/02/04 04:33:29;;;;;;;1.95;1.25;;;19.60;70.40;;;;;;5057248;28;20209;-76
2023/02/04 04:35:56;;;;;;;1.77;1.38;;;19.60;71.20;;;;;;5060673;28;20191;-76
2023/02/04 04:38:22;;;;;;;2.15;1.25;;;19.60;70.40;;;;;;5059366;28;20201;-77
2023/02/04 04:40:51;;;;;;;2.60;1.58;;;19.60;70.40;;;;;;5059308;28;20205;-78
2023/02/04 04:43:17;;;;;;;1.65;1.00;;;19.60;70.40;;;;;;5058250;28;20207;-78
2023/02/04 04:45:44;;;;;;;1.95;1.08;;;19.60;70.40;;;;;;5057440;28;20218;-76
2023/02/04 04:48:11;;;;;;;2.17;1.38;;;19.60;70.30;;;;;;5060009;28;20199;-77
2023/02/04 04:50:37;;;;;;;2.45;1.88;;;19.60;70.40;;;;;;5058133;28;20204;-79
2023/02/04 04:53:05;;;;;;;1.50;1.08;;;19.50;70.30;;;;;;5058324;28;20222;-79
2023/02/04 04:55:32;;;;;;;2.78;1.38;;;19.50;70.30;;;;;;5056210;28;20202;-79
2023/02/04 04:58:00;;;;;;;2.75;1.42;;;19.50;70.30;;;;;;5059396;28;20633;-79
2023/02/04 05:00:27;;;;;;;1.65;1.20;;;19.50;70.30;;;;;;5056445;28;20562;-79
2023/02/04 05:02:54;;;;;;;1.90;1.10;;;19.50;70.20;;;;;;5056915;28;20627;-80
2023/02/04 05:05:21;;;;;;;2.55;1.45;;;19.50;70.30;;;;;;5056126;28;20713;-80
2023/02/04 05:07:47;;;;;;;2.10;1.33;;;19.50;70.20;;;;;;5057203;28;20205;-78
2023/02/04 05:10:14;;;;;;;1.20;0.90;;;19.50;70.30;;;;;;5055246;28;20697;-79
2023/02/04 05:12:41;;;;;;;2.20;2.00;;;19.50;70.20;;;;;;5058964;28;20196;-78
2023/02/04 05:15:10;;;;;;;2.05;1.33;;;19.50;70.20;;;;;;5057880;28;20201;-79
2023/02/04 05:17:37;;;;;;;1.50;1.30;;;19.50;70.20;;;;;;5057788;28;20208;-79
2023/02/04 05:20:04;;;;;;;1.60;1.35;;;19.50;70.20;;;;;;5058872;28;20591;-80
2023/02/04 05:22:30;;;;;;;1.90;1.40;;;19.50;70.20;;;;;;5054510;28;20206;-79
2023/02/04 05:24:57;;;;;;;1.92;1.25;;;19.50;70.20;;;;;;5056998;28;20650;-81
2023/02/04 05:27:24;;;;;;;1.27;0.90;;;19.50;70.20;;;;;;5058321;28;20236;-81
2023/02/04 05:29:51;;;;;;;1.55;1.23;;;19.50;70.20;;;;;;5059499;28;20200;-80
2023/02/04 05:32:19;;;;;;;1.38;1.10;;;19.50;70.20;;;;;;5055593;28;20200;-80
2023/02/04 05:34:46;;;;;;;2.25;1.30;;;19.50;70.20;;;;;;5056373;28;20200;-80
2023/02/04 05:37:14;;;;;;;1.30;0.80;;;19.50;70.20;;;;;;5058658;28;20306;-79
2023/02/04 05:39:41;;;;;;;2.10;1.33;;;19.50;70.10;;;;;;5057396;28;20668;-80
2023/02/04 05:42:07;;;;;;;1.35;0.93;;;19.50;70.20;;;;;;5057536;28;20204;-81
2023/02/04 05:44:34;;;;;;;1.33;1.00;;;19.50;70.20;;;;;;5057019;28;20195;-80
2023/02/04 05:47:01;;;;;;;1.65;1.27;;;19.50;70.20;;;;;;5055363;28;20322;-81
2023/02/04 05:49:29;;;;;;;1.85;1.20;;;19.50;70.20;;;;;;5058528;28;20207;-79
2023/02/04 05:51:56;;;;;;;1.67;1.30;;;19.50;70.20;;;;;;5055954;28;20229;-80
2023/02/04 05:54:22;;;;;;;1.70;1.23;;;19.50;70.20;;;;;;5056105;28;20196;-80
2023/02/04 05:56:50;;;;;;;1.10;0.90;;;19.50;70.20;;;;;;5057400;28;20200;-78
2023/02/04 05:59:17;;;;;;;1.45;1.10;;;19.50;70.20;;;;;;5057947;28;20203;-81
2023/02/04 06:01:44;;;;;;;1.85;1.00;;;19.50;70.10;;;;;;5056830;28;20769;-81
2023/02/04 06:04:11;;;;;;;1.98;0.98;;;19.50;70.10;;;;;;5059872;28;20660;-81
2023/02/04 06:06:39;;;;;;;1.60;1.40;;;19.40;70.10;;;;;;5057224;28;20696;-81
2023/02/04 06:09:06;;;;;;;2.55;1.42;;;19.40;70.10;;;;;;5059412;28;20704;-80
2023/02/04 06:11:32;;;;;;;1.30;0.90;;;19.40;70.10;;;;;;5053001;28;20195;-78
2023/02/04 06:13:59;;;;;;;1.65;1.10;;;19.40;70.10;;;;;;5056998;28;20554;-81
2023/02/04 06:16:26;;;;;;;1.80;1.02;;;19.40;70.00;;;;;;5055550;28;20209;-80
2023/02/04 06:18:52;;;;;;;1.55;1.25;;;19.40;70.00;;;;;;5058394;28;20222;-79
2023/02/04 06:21:19;;;;;;;1.67;1.13;;;19.40;70.00;;;;;;5057166;28;20572;-79
2023/02/04 06:23:47;;;;;;;1.30;0.90;;;19.50;70.10;;;;;;5057106;28;20211;-79
2023/02/04 06:26:14;;;;;;;2.03;1.10;;;19.50;70.10;;;;;;5053314;28;20698;-79
2023/02/04 06:28:41;;;;;;;3.10;1.38;;;19.50;70.10;;;;;;5056408;28;20200;-79
2023/02/04 06:31:08;;;;;;;1.70;1.15;;;19.50;70.10;;;;;;5056105;28;20598;-80
2023/02/04 06:33:35;;;;;;;1.58;1.10;;;19.50;70.10;;;;;;5056184;28;20223;-78
2023/02/04 06:36:02;;;;;;;1.40;1.00;;;19.50;70.10;;;;;;5055243;28;20228;-78
2023/02/04 06:38:29;;;;;;;1.55;1.42;;;19.50;70.10;;;;;;5057327;28;20222;-80
2023/02/04 06:40:57;;;;;;;2.00;1.20;;;19.50;70.10;;;;;;5054655;28;20204;-80
2023/02/04 06:43:26;;;;;;;1.88;1.10;;;19.50;70.20;;;;;;5058141;28;20203;-80
2023/02/04 06:45:53;;;;;;;2.08;1.10;;;19.50;70.10;;;;;;5056337;28;20726;-81
2023/02/04 06:48:20;;;;;;;1.70;1.10;;;19.50;70.10;;;;;;5055850;28;20282;-80
2023/02/04 06:50:47;;;;;;;1.40;0.95;;;19.50;70.10;;;;;;5056657;28;20204;-80
2023/02/04 06:53:13;;;;;;;1.40;1.10;;;19.50;70.10;;;;;;5054128;28;20599;-80
2023/02/04 06:55:40;;;;;;;1.95;1.00;;;19.50;70.10;;;;;;5055351;28;20202;-79
2023/02/04 06:58:08;;;;;;;1.38;1.17;;;19.50;70.10;;;;;;5057010;28;20240;-79
2023/02/04 07:00:35;;;;;;;2.55;1.10;;;19.50;70.00;;;;;;5053634;28;20205;-78
2023/02/04 07:03:02;;;;;;;1.90;1.38;;;19.50;70.00;;;;;;5055026;28;20206;-78
2023/02/04 07:05:29;;;;;;;1.90;1.08;;;19.50;70.00;;;;;;5055940;28;20663;-78
2023/02/04 07:07:55;;;;;;;2.28;1.20;;;19.50;70.00;;;;;;5056033;28;20201;-79
2023/02/04 07:10:22;;;;;;;1.30;1.10;;;19.50;70.00;;;;;;5056814;28;20391;-78
2023/02/04 07:12:49;;;;;;;2.15;1.00;;;19.60;70.00;;;;;;5054085;28;20205;-79
2023/02/04 07:15:17;;;;;;;2.33;1.10;;;19.50;69.90;;;;;;5056322;28;20195;-78
2023/02/04 07:17:44;;;;;;;1.30;1.00;;;19.60;70.00;;;;;;5056621;28;20209;-78
2023/02/04 07:20:11;;;;;;;2.60;1.15;;;19.60;70.00;;;;;;5058485;28;20286;-80
2023/02/04 07:22:41;;;;;;;2.50;1.10;;;19.60;70.00;;;;;;5054720;28;20205;-78
2023/02/04 07:25:08;;;;;;;1.50;1.08;;;19.60;70.00;;;;;;5053488;28;20212;-79
2023/02/04 07:27:35;;;;;;;1.55;1.00;;;19.60;69.90;;;;;;5056321;28;20296;-78
2023/02/04 07:30:02;;;;;;;1.20;0.80;;;19.60;70.00;;;;;;5060058;28;20207;-78
2023/02/04 07:32:32;;;;;;;2.25;1.00;;;19.60;70.00;;;;;;5060010;28;20198;-78
2023/02/04 07:34:59;;;;;;;1.13;0.90;;;19.60;69.90;;;;;;5061458;28;20200;-77
2023/02/04 07:37:26;;;;;;;1.65;0.98;;;19.70;70.00;;;;;;5059438;28;20556;-78
2023/02/04 07:39:52;;;;;;;2.10;1.48;;;19.70;70.00;;;;;;5059122;28;20723;-78
2023/02/04 07:42:19;;;;;;;1.30;0.80;;;19.70;70.00;;;;;;5056793;28;20204;-78
2023/02/04 07:44:46;;;;;;;2.40;1.02;;;19.70;69.90;;;;;;5059573;28;20196;-78
2023/02/04 07:47:12;;;;;;;1.42;0.90;;;19.70;69.90;;;;;;5057159;28;20216;-80
2023/02/04 07:49:40;;;;;;;2.45;1.27;;;19.70;69.90;;;;;;5059413;28;20196;-80
2023/02/04 07:52:08;;;;;;;1.67;1.30;;;19.70;69.90;;;;;;5061117;28;20229;-80
2023/02/04 07:54:35;;;;;;;1.58;1.02;;;19.70;70.00;;;;;;5060392;28;20670;-81
2023/02/04 07:57:02;;;;;;;1.40;1.10;;;19.70;69.90;;;;;;5059545;28;20199;-81
2023/02/04 07:59:28;;;;;;;1.10;0.90;;;19.70;70.00;;;;;;5057846;28;20201;-80
2023/02/04 08:01:55;;;;;;;1.95;1.23;;;19.70;70.00;;;;;;5057931;28;20205;-80
2023/02/04 08:04:22;;;;;;;1.10;0.98;;;19.70;70.00;;;;;;5059762;28;20559;-80
2023/02/04 08:06:53;;;;;;;2.28;1.20;;;19.70;70.00;;;;;;5057612;28;20224;-81
2023/02/04 08:09:19;;;;;;;17.95;3.35;;;19.70;70.10;;;;;;5059018;28;20211;-81
2023/02/04 08:11:46;;;;;;;15.07;5.15;;;19.50;68.00;;;;;;5059352;28;20224;-80
2023/02/04 08:14:13;;;;;;;14.80;5.00;;;19.10;64.00;;;;;;5060152;28;20199;-80
2023/02/04 08:16:39;;;;;;;15.70;5.28;;;18.80;63.00;;;;;;5059955;28;20200;-78
2023/02/04 08:19:06;;;;;;;14.95;4.30;;;18.60;62.20;;;;;;5060326;28;20212;-78
2023/02/04 08:21:33;;;;;;;9.07;3.55;;;18.50;62.80;;;;;;5059081;28;20201;-80
2023/02/04 08:24:01;;;;;;;10.25;4.05;;;18.70;64.30;;;;;;5059313;28;20200;-79
2023/02/04 08:26:28;;;;;;;12.57;3.65;;;19.00;65.20;;;;;;5060216;28;20217;-79
2023/02/04 08:28:55;;;;;;;10.90;3.88;;;19.20;65.50;;;;;;5059261;28;20207;-80
2023/02/04 08:31:22;;;;;;;7.38;3.67;;;19.30;65.70;;;;;;5056714;28;20192;-87
2023/02/04 08:33:48;;;;;;;12.05;3.88;;;19.40;65.90;;;;;;5056630;28;20207;-79
2023/02/04 08:36:15;;;;;;;7.97;2.92;;;19.40;66.00;;;;;;5056591;28;20192;-79
2023/02/04 08:38:43;;;;;;;7.40;3.20;;;19.50;66.20;;;;;;5057948;28;20207;-79
2023/02/04 08:41:11;;;;;;;9.02;2.63;;;19.50;66.30;;;;;;5057109;28;20287;-80
2023/02/04 08:43:38;;;;;;;8.40;3.40;;;19.50;66.60;;;;;;5058585;28;20205;-79
2023/02/04 08:46:07;;;;;;;6.25;2.75;;;19.50;66.80;;;;;;5060436;28;20224;-80
2023/02/04 08:48:34;;;;;;;9.18;2.83;;;19.50;66.90;;;;;;5057587;28;20213;-81
2023/02/04 08:51:00;;;;;;;5.70;3.08;;;19.60;67.10;;;;;;5058764;28;20387;-82
2023/02/04 08:53:27;;;;;;;8.75;3.63;;;19.60;67.10;;;;;;5057447;28;20201;-83
2023/02/04 08:55:54;;;;;;;6.38;2.80;;;19.60;67.50;;;;;;5059028;28;20205;-81
2023/02/04 08:58:22;;;;;;;10.30;3.53;;;19.50;68.10;;;;;;5060138;28;20212;-80
2023/02/04 09:00:49;;;;;;;12.07;3.58;;;19.50;68.00;;;;;;5059072;28;20200;-85
2023/02/04 09:03:15;;;;;;;9.13;3.35;;;19.50;68.00;;;;;;5056935;28;20206;-83
2023/02/04 09:05:42;;;;;;;7.85;2.78;;;19.50;68.10;;;;;;5056559;28;20567;-86
2023/02/04 09:08:09;;;;;;;13.13;3.05;;;19.60;68.10;;;;;;5057827;28;20277;-78
2023/02/04 09:10:36;;;;;;;6.50;3.45;;;19.60;68.20;;;;;;5057703;28;20207;-80
2023/02/04 09:13:03;;;;;;;4.95;2.50;;;19.60;68.30;;;;;;5057303;28;20545;-82
2023/02/04 09:15:31;;;;;;;6.82;2.78;;;19.60;68.20;;;;;;5056261;28;20205;-82
2023/02/04 09:18:03;;;;;;;5.65;2.55;;;19.60;68.70;;;;;;5059279;28;20208;-80
2023/02/04 09:20:30;;;;;;;6.15;2.17;;;19.60;69.00;;;;;;5057396;28;20297;-79
2023/02/04 09:22:57;;;;;;;5.22;2.13;;;19.70;69.00;;;;;;5057812;28;20196;-82
2023/02/04 09:25:23;;;;;;;4.90;2.53;;;19.70;69.00;;;;;;5055983;28;20200;-78
2023/02/04 09:27:50;;;;;;;10.07;2.92;;;19.70;69.00;;;;;;5057243;28;20266;-80
2023/02/04 09:30:17;;;;;;;5.78;2.42;;;19.70;68.90;;;;;;5056342;28;20202;-79
2023/02/04 09:32:45;;;;;;;6.10;2.47;;;19.70;68.90;;;;;;5056725;28;20206;-81
2023/02/04 09:35:12;;;;;;;9.90;2.42;;;19.70;68.90;;;;;;5057163;28;20205;-79
2023/02/04 09:37:39;;;;;;;6.38;2.20;;;19.70;68.90;;;;;;5057614;28;20587;-80
2023/02/04 09:40:06;;;;;;;4.40;2.10;;;19.70;68.90;;;;;;5057247;28;20201;-79
2023/02/04 09:42:33;;;;;;;3.50;1.65;;;19.80;69.00;;;;;;5056832;28;20208;-80
2023/02/04 09:45:01;;;;;;;6.22;2.53;;;19.70;68.90;;;;;;5057343;28;20203;-79
2023/02/04 09:47:28;;;;;;;4.95;2.38;;;19.80;69.00;;;;;;5054176;28;20240;-79
2023/02/04 09:49:57;;;;;;;4.90;2.90;;;19.80;69.00;;;;;;5057862;28;20200;-79
2023/02/04 09:52:24;;;;;;;4.07;1.75;;;19.80;69.00;;;;;;5056381;28;20220;-79
2023/02/04 09:54:51;;;;;;;6.50;2.30;;;19.80;69.00;;;;;;5057558;28;20249;-79
2023/02/04 09:57:19;;;;;;;4.85;2.35;;;19.80;69.00;;;;;;5057707;28;20219;-79
2023/02/04 09:59:47;;;;;;;5.75;2.67;;;19.80;68.90;;;;;;5056149;28;20208;-79
2023/02/04 10:02:22;;;;;;;4.32;1.92;;;19.80;69.00;;;;;;5053612;28;20205;-79
2023/02/04 10:04:50;;;;;;;5.18;1.83;;;19.80;69.00;;;;;;5057093;28;20229;-79
2023/02/04 10:07:24;;;;;;;4.72;2.05;;;19.80;69.00;;;;;;5056062;28;20248;-80
2023/02/04 10:09:51;;;;;;;6.30;2.20;;;19.80;69.00;;;;;;5053177;28;20727;-79
2023/02/04 10:12:19;;;;;;;5.25;2.40;;;19.80;69.00;;;;;;5054863;28;20668;-79
2023/02/04 10:14:46;;;;;;;5.60;2.03;;;19.80;69.00;;;;;;5055251;28;20208;-80
2023/02/04 10:17:15;;;;;;;8.98;2.10;;;19.80;69.00;;;;;;5053978;28;20202;-80
2023/02/04 10:19:42;;;;;;;4.22;1.88;;;19.80;69.00;;;;;;5056574;28;20226;-80
2023/02/04 10:22:16;;;;;;;3.38;1.90;;;19.90;69.10;;;;;;5055172;28;20203;-79
2023/02/04 10:24:45;;;;;;;2.90;1.80;;;19.90;69.10;;;;;;5055329;28;20220;-80
2023/02/04 10:27:15;;;;;;;2.60;1.73;;;19.90;69.10;;;;;;5055188;28;20220;-79
2023/02/04 10:29:42;;;;;;;4.60;2.40;;;19.90;69.00;;;;;;5058543;28;20254;-79
2023/02/04 10:32:27;;;;;;;17.02;3.40;;;19.80;69.20;;;;;;5057905;28;20649;-79
2023/02/04 10:34:58;;;;;;;14.85;3.60;;;19.60;69.10;;;;;;5057847;28;20203;-79
2023/02/04 10:37:26;;;;;;;11.85;5.00;;;19.40;68.60;;;;;;5057360;28;20194;-79
2023/02/04 10:39:54;;;;;;;10.40;4.70;;;19.30;66.80;;;;;;5056678;28;20201;-79
2023/02/04 10:42:23;;;;;;;21.52;5.32;;;19.10;66.00;;;;;;5054087;28;20204;-81
2023/02/04 10:44:50;;;;;;;15.88;3.55;;;19.10;65.30;;;;;;5056189;28;21904;-80
2023/02/04 10:47:19;;;;;;;11.35;4.05;;;19.10;65.60;;;;;;5054699;28;20800;-81
2023/02/04 10:49:54;;;;;;;12.27;4.28;;;19.30;66.30;;;;;;5054590;28;20226;-80
2023/02/04 10:52:24;;;;;;;7.70;2.88;;;19.40;66.50;;;;;;5054366;28;20682;-80
2023/02/04 10:54:50;;;;;;;14.65;3.70;;;19.50;66.60;;;;;;5058581;28;20196;-81
2023/02/04 10:57:22;;;;;;;9.03;3.87;;;19.60;66.70;;;;;;5056784;28;20196;-81
2023/02/04 10:59:50;;;;;;;16.33;3.08;;;19.60;66.70;;;;;;5057186;28;20464;-80
2023/02/04 11:02:38;;;;;;;8.90;3.17;;;19.60;66.80;;;;;;5053952;28;20199;-78
2023/02/04 11:05:10;;;;;;;12.23;3.67;;;19.70;66.90;;;;;;5056415;28;20231;-80
2023/02/04 11:07:39;;;;;;;18.50;3.30;;;19.70;67.00;;;;;;5057352;28;20220;-84
2023/02/04 11:10:11;;;;;;;8.45;2.45;;;19.70;67.10;;;;;;5054828;28;20608;-85
2023/02/04 11:12:44;;;;;;;13.00;3.38;;;19.70;67.20;;;;;;5060578;28;20544;-84
2023/02/04 11:15:45;;;;;;;7.65;2.13;;;19.80;67.50;;;;;;5065139;28;20651;-85
2023/02/04 11:18:25;;;;;;;14.68;3.95;;;19.80;67.60;;;;;;5054282;28;20279;-80
2023/02/04 11:20:53;;;;;;;6.18;2.58;;;19.90;67.80;;;;;;5054637;28;20208;-79
2023/02/04 11:23:35;;;;;;;8.35;3.60;;;19.90;67.80;;;;;;5054333;28;20215;-79
2023/02/04 11:26:09;;;;;;;5.47;2.25;;;19.90;67.80;;;;;;5056717;28;20272;-78
2023/02/04 11:28:47;;;;;;;8.68;2.53;;;19.90;67.90;;;;;;5055590;28;20221;-78
2023/02/04 11:31:27;;;;;;;7.80;3.28;;;19.90;68.00;;;;;;5056284;28;20192;-80
2023/02/04 11:34:24;;;;;;;9.50;1.85;;;19.90;68.00;;;;;;5051638;28;20610;-86
2023/02/04 11:36:56;;;;;;;8.10;2.42;;;19.90;68.20;;;;;;5056430;28;20192;-86
2023/02/04 11:39:26;;;;;;;10.13;2.72;;;19.90;68.70;;;;;;5055817;28;20736;-84
2023/02/04 11:41:52;;;;;;;5.22;2.65;;;19.90;69.10;;;;;;5056254;28;20563;-84
2023/02/04 11:44:21;;;;;;;13.38;2.95;;;19.90;69.50;;;;;;5054323;28;20203;-87
2023/02/04 11:46:51;;;;;;;5.72;2.05;;;19.90;69.80;;;;;;5053127;28;20196;-84
2023/02/04 11:49:20;;;;;;;6.25;2.00;;;19.90;69.90;;;;;;5055319;28;20647;-82
2023/02/04 11:51:47;;;;;;;6.90;2.25;;;19.90;70.10;;;;;;5054552;28;20228;-85
2023/02/04 11:54:18;;;;;;;6.47;2.60;;;19.90;70.00;;;;;;5056168;28;20197;-86
2023/02/04 11:56:46;;;;;;;6.15;2.80;;;20.00;70.00;;;;;;5069588;28;20204;-87
2023/02/04 11:59:16;;;;;;;5.65;2.45;;;20.00;70.00;;;;;;5064496;28;20195;-87
2023/02/04 12:01:44;;;;;;;6.43;1.90;;;20.10;70.10;;;;;;5063097;28;20201;-86
2023/02/04 12:04:23;;;;;;;4.72;2.15;;;20.10;70.10;;;;;;5068278;28;22251;-88
2023/02/04 12:06:58;;;;;;;4.13;1.88;;;20.10;70.20;;;;;;5056839;28;20676;-86
2023/02/04 12:09:26;;;;;;;6.60;2.20;;;20.10;70.30;;;;;;5057356;28;20215;-84
2023/02/04 12:11:53;;;;;;;5.53;2.42;;;20.10;70.30;;;;;;5053538;28;20649;-86
2023/02/04 12:14:28;;;;;;;7.15;2.15;;;20.10;70.30;;;;;;5063398;28;20200;-82
2023/02/04 12:16:57;;;;;;;6.10;2.03;;;20.20;70.60;;;;;;5072653;28;20188;-85
2023/02/04 12:19:24;;;;;;;9.20;1.80;;;20.20;70.50;;;;;;5069718;28;20203;-86
2023/02/04 12:21:51;;;;;;;4.80;2.45;;;20.20;70.60;;;;;;5075099;28;20196;-86
2023/02/04 12:24:17;;;;;;;6.72;3.08;;;20.30;70.70;;;;;;5064644;28;20208;-83
2023/02/04 12:26:45;;;;;;;2.97;1.77;;;20.30;70.70;;;;;;5059759;28;20653;-89
2023/02/04 12:29:11;;;;;;;9.38;2.85;;;20.30;70.70;;;;;;5059768;28;20220;-87
2023/02/04 12:31:38;;;;;;;5.72;1.98;;;20.30;70.70;;;;;;5057396;28;20201;-84
2023/02/04 12:34:06;;;;;;;4.60;1.73;;;20.40;70.80;;;;;;5060218;28;20195;-84
2023/02/04 12:36:33;;;;;;;4.90;2.03;;;20.40;70.70;;;;;;5059420;28;20193;-85
2023/02/04 12:39:01;;;;;;;3.72;1.95;;;20.40;70.80;;;;;;5057112;28;20196;-84
2023/02/04 12:41:28;;;;;;;5.50;2.05;;;20.40;70.70;;;;;;5058543;28;20220;-85
2023/02/04 12:43:55;;;;;;;3.40;1.40;;;20.40;70.80;;;;;;5056190;28;20247;-85
2023/02/04 12:46:25;;;;;;;4.85;1.52;;;20.40;70.80;;;;;;5068171;28;20203;-87
2023/02/04 12:48:52;;;;;;;5.13;1.63;;;20.40;70.80;;;;;;5062146;28;20739;-85